Time;durP1;ratioP1;P1;durP2;ratioP2;P2;SDS_P1;SDS_P2;PMS_P1;PMS_P2;Temp;Humidity;BMP_temperature;BMP_pressure;BME280_temperature;BME280_humidity;BME280_pressure;Samples;Min_cycle;Max_cycle;Signal;HPM_P1;HPM_P2
2022/07/09 00:00:29;;;;;;;;;;;25.80;41.90;;;;;;2091301;28;1221;-80
2022/07/09 00:01:30;;;;;;;;;;;25.80;41.90;;;;;;2099505;28;1364;-80
2022/07/09 00:02:30;;;;;;;;;;;25.80;41.90;;;;;;2091220;28;1395;-79
2022/07/09 00:03:30;;;;;;;;;;;25.80;42.00;;;;;;2099433;28;1376;-80
2022/07/09 00:04:31;;;;;;;;;;;25.80;41.90;;;;;;2099609;28;1161;-79
2022/07/09 00:05:31;;;;;;;;;;;25.80;41.90;;;;;;2099405;28;1190;-80
2022/07/09 00:06:31;;;;;;;;;;;25.80;41.90;;;;;;2099481;28;859;-79
2022/07/09 00:07:32;;;;;;;;;;;25.80;42.00;;;;;;2107846;28;1195;-80
2022/07/09 00:08:32;;;;;;;;;;;25.80;42.10;;;;;;2107974;28;833;-79
2022/07/09 00:09:32;;;;;;;;;;;25.80;41.90;;;;;;2099518;28;1488;-79
2022/07/09 00:10:33;;;;;;;;;;;25.80;42.00;;;;;;2099484;28;1357;-79
2022/07/09 00:11:33;;;;;;;;;;;25.80;41.90;;;;;;2099506;28;821;-79
2022/07/09 00:12:34;;;;;;;;;;;25.80;42.00;;;;;;2100069;28;956;-79
2022/07/09 00:13:34;;;;;;;;;;;25.80;42.00;;;;;;2099461;28;1345;-79
2022/07/09 00:14:34;;;;;;;;;;;25.80;42.10;;;;;;2099357;28;1177;-79
2022/07/09 00:15:35;;;;;;;;;;;25.80;42.00;;;;;;2099373;28;1430;-80
2022/07/09 00:16:35;;;;;;;;;;;25.80;42.00;;;;;;2099377;28;806;-80
2022/07/09 00:17:35;;;;;;;;;;;25.80;42.10;;;;;;2099223;28;1246;-80
2022/07/09 00:18:36;;;;;;;;;;;25.80;42.00;;;;;;2099108;28;1965;-79
2022/07/09 00:19:37;;;;;;;;;;;25.80;42.10;;;;;;2100334;28;849;-79
2022/07/09 00:20:37;;;;;;;;;;;25.80;42.10;;;;;;2099934;28;878;-80
2022/07/09 00:21:38;;;;;;;;;;;25.80;42.10;;;;;;2099314;28;1380;-79
2022/07/09 00:22:39;;;;;;;;;;;25.80;42.10;;;;;;2099485;28;837;-79
2022/07/09 00:23:39;;;;;;;;;;;25.80;42.00;;;;;;2099351;28;1222;-80
2022/07/09 00:24:39;;;;;;;;;;;25.80;42.10;;;;;;2091051;28;1246;-79
2022/07/09 00:25:40;;;;;;;;;;;25.80;42.10;;;;;;2099454;28;1236;-79
2022/07/09 00:26:40;;;;;;;;;;;25.80;42.10;;;;;;2099549;28;1055;-79
2022/07/09 00:27:40;;;;;;;;;;;25.80;42.20;;;;;;2099416;28;1253;-80
2022/07/09 00:28:41;;;;;;;;;;;25.80;42.20;;;;;;2091070;28;1213;-80
2022/07/09 00:29:42;;;;;;;;;;;25.80;42.10;;;;;;2099468;28;778;-80
2022/07/09 00:30:42;;;;;;;;;;;25.70;42.10;;;;;;2099879;28;991;-79
2022/07/09 00:31:42;;;;;;;;;;;25.80;42.20;;;;;;2099426;28;1265;-79
2022/07/09 00:32:43;;;;;;;;;;;25.80;42.20;;;;;;2090981;28;1179;-79
2022/07/09 00:33:43;;;;;;;;;;;25.80;42.20;;;;;;2099279;28;1222;-79
2022/07/09 00:34:43;;;;;;;;;;;25.80;42.30;;;;;;2091012;28;1192;-80
2022/07/09 00:35:44;;;;;;;;;;;25.80;42.30;;;;;;2099289;28;1265;-79
2022/07/09 00:36:44;;;;;;;;;;;25.80;42.30;;;;;;2091030;28;1304;-79
2022/07/09 00:37:45;;;;;;;;;;;25.70;42.20;;;;;;2090941;28;1378;-79
2022/07/09 00:38:45;;;;;;;;;;;25.80;42.20;;;;;;2099421;28;1914;-79
2022/07/09 00:39:45;;;;;;;;;;;25.80;42.40;;;;;;2100049;28;817;-79
2022/07/09 00:40:46;;;;;;;;;;;25.80;42.50;;;;;;2100024;28;909;-79
2022/07/09 00:41:46;;;;;;;;;;;25.80;42.40;;;;;;2099929;28;841;-79
2022/07/09 00:42:46;;;;;;;;;;;25.80;42.50;;;;;;2099310;28;1401;-79
2022/07/09 00:43:48;;;;;;;;;;;25.80;42.50;;;;;;2090894;28;1286;-79
2022/07/09 00:44:48;;;;;;;;;;;25.80;42.70;;;;;;2099222;28;1315;-79
2022/07/09 00:45:49;;;;;;;;;;;25.80;42.70;;;;;;2099196;28;1280;-79
2022/07/09 00:46:49;;;;;;;;;;;25.80;42.80;;;;;;2091003;28;1401;-79
2022/07/09 00:47:50;;;;;;;;;;;25.70;42.80;;;;;;2099236;28;976;-79
2022/07/09 00:48:50;;;;;;;;;;;25.80;42.70;;;;;;2100005;28;818;-79
2022/07/09 00:49:50;;;;;;;;;;;25.80;42.90;;;;;;2099348;28;1342;-80
2022/07/09 00:50:51;;;;;;;;;;;25.80;42.90;;;;;;2091206;28;1240;-79
2022/07/09 00:51:51;;;;;;;;;;;25.80;43.00;;;;;;2099361;28;818;-79
2022/07/09 00:52:51;;;;;;;;;;;25.80;43.00;;;;;;2099365;28;1640;-79
2022/07/09 00:53:52;;;;;;;;;;;25.80;43.00;;;;;;2099272;28;1076;-79
2022/07/09 00:54:52;;;;;;;;;;;25.80;43.00;;;;;;2099805;28;1256;-79
2022/07/09 00:55:53;;;;;;;;;;;25.80;43.00;;;;;;2099245;28;1614;-80
2022/07/09 00:56:53;;;;;;;;;;;25.80;43.00;;;;;;2099556;28;829;-79
2022/07/09 00:57:54;;;;;;;;;;;25.80;43.10;;;;;;2099986;28;890;-79
2022/07/09 00:58:54;;;;;;;;;;;25.80;43.00;;;;;;2099830;28;1894;-79
2022/07/09 00:59:54;;;;;;;;;;;25.80;43.00;;;;;;2099153;28;1246;-79
2022/07/09 01:00:55;;;;;;;;;;;25.80;43.00;;;;;;2090835;28;1250;-79
2022/07/09 01:01:55;;;;;;;;;;;25.80;43.10;;;;;;2099167;28;973;-79
2022/07/09 01:02:55;;;;;;;;;;;25.80;43.20;;;;;;2099213;28;1188;-79
2022/07/09 01:03:56;;;;;;;;;;;25.80;43.10;;;;;;2090983;28;1301;-79
2022/07/09 01:04:56;;;;;;;;;;;25.70;43.10;;;;;;2090845;28;1265;-79
2022/07/09 01:05:57;;;;;;;;;;;25.80;43.20;;;;;;2090879;28;1269;-79
2022/07/09 01:06:58;;;;;;;;;;;25.80;43.20;;;;;;2090843;28;1257;-80
2022/07/09 01:07:58;;;;;;;;;;;25.80;43.30;;;;;;2090681;28;1233;-79
2022/07/09 01:08:58;;;;;;;;;;;25.70;43.20;;;;;;2099269;28;892;-79
2022/07/09 01:09:59;;;;;;;;;;;25.80;43.20;;;;;;2099881;28;944;-79
2022/07/09 01:10:59;;;;;;;;;;;25.70;43.20;;;;;;2099636;28;1091;-79
2022/07/09 01:11:59;;;;;;;;;;;25.70;43.30;;;;;;2099083;28;1387;-79
2022/07/09 01:13:00;;;;;;;;;;;25.80;43.10;;;;;;2090862;28;1403;-79
2022/07/09 01:14:00;;;;;;;;;;;25.80;43.10;;;;;;2099125;28;1032;-79
2022/07/09 01:15:01;;;;;;;;;;;25.80;43.20;;;;;;2099065;28;1354;-79
2022/07/09 01:16:01;;;;;;;;;;;25.80;43.20;;;;;;2099349;28;1003;-79
2022/07/09 01:17:01;;;;;;;;;;;25.80;43.30;;;;;;2099166;28;1180;-79
2022/07/09 01:18:02;;;;;;;;;;;25.80;43.30;;;;;;2099230;28;1280;-79
2022/07/09 01:19:02;;;;;;;;;;;25.80;43.20;;;;;;2107586;28;1890;-80
2022/07/09 01:20:03;;;;;;;;;;;25.80;43.30;;;;;;2099198;28;1383;-80
2022/07/09 01:21:04;;;;;;;;;;;25.80;43.20;;;;;;2099211;28;868;-79
2022/07/09 01:22:06;;;;;;;;;;;25.70;43.20;;;;;;2099854;28;794;-79
2022/07/09 01:23:07;;;;;;;;;;;25.80;43.30;;;;;;2099055;28;1217;-80
2022/07/09 01:24:07;;;;;;;;;;;25.80;43.30;;;;;;2099121;28;826;-79
2022/07/09 01:25:09;;;;;;;;;;;25.70;43.20;;;;;;2098996;28;1336;-79
2022/07/09 01:26:09;;;;;;;;;;;25.80;43.30;;;;;;2099039;28;897;-79
2022/07/09 01:27:09;;;;;;;;;;;25.70;43.40;;;;;;2099718;28;908;-79
2022/07/09 01:28:10;;;;;;;;;;;25.80;43.20;;;;;;2099001;28;1400;-79
2022/07/09 01:29:10;;;;;;;;;;;25.80;43.20;;;;;;2090734;28;1265;-79
2022/07/09 01:30:10;;;;;;;;;;;25.80;43.20;;;;;;2099279;28;1260;-79
2022/07/09 01:31:11;;;;;;;;;;;25.80;43.30;;;;;;2100912;28;936;-79
2022/07/09 01:32:11;;;;;;;;;;;25.80;43.20;;;;;;2100640;28;1213;-79
2022/07/09 01:33:12;;;;;;;;;;;25.70;43.30;;;;;;2092180;28;1387;-79
2022/07/09 01:34:13;;;;;;;;;;;25.70;43.40;;;;;;2100676;28;1299;-79
2022/07/09 01:35:13;;;;;;;;;;;25.80;43.40;;;;;;2100655;28;1184;-80
2022/07/09 01:36:13;;;;;;;;;;;25.80;43.30;;;;;;2101246;28;908;-79
2022/07/09 01:37:15;;;;;;;;;;;25.80;43.30;;;;;;2100582;28;1265;-79
2022/07/09 01:38:15;;;;;;;;;;;25.70;43.30;;;;;;2092575;28;1240;-79
2022/07/09 01:39:16;;;;;;;;;;;25.70;43.50;;;;;;2092309;28;1894;-79
2022/07/09 01:40:16;;;;;;;;;;;25.80;43.50;;;;;;2092450;28;1366;-79
2022/07/09 01:41:17;;;;;;;;;;;25.70;43.40;;;;;;2092253;28;1254;-80
2022/07/09 01:42:17;;;;;;;;;;;25.80;43.30;;;;;;2092245;28;1218;-79
2022/07/09 01:43:18;;;;;;;;;;;25.80;43.40;;;;;;2092278;28;1254;-79
2022/07/09 01:44:18;;;;;;;;;;;25.80;43.50;;;;;;2092232;28;1227;-79
2022/07/09 01:45:18;;;;;;;;;;;25.70;43.30;;;;;;2092241;28;1222;-79
2022/07/09 01:46:19;;;;;;;;;;;25.80;43.30;;;;;;2100441;28;849;-79
2022/07/09 01:47:19;;;;;;;;;;;25.80;43.40;;;;;;2101238;28;805;-79
2022/07/09 01:48:20;;;;;;;;;;;25.80;43.30;;;;;;2101035;28;928;-79
2022/07/09 01:49:20;;;;;;;;;;;25.70;43.40;;;;;;2100516;28;1351;-79
2022/07/09 01:50:20;;;;;;;;;;;25.70;43.40;;;;;;2092268;28;1250;-79
2022/07/09 01:51:22;;;;;;;;;;;25.80;43.30;;;;;;2100365;28;1378;-79
2022/07/09 01:52:22;;;;;;;;;;;25.70;43.40;;;;;;2100490;28;891;-79
2022/07/09 01:53:22;;;;;;;;;;;25.80;43.40;;;;;;2100503;28;1241;-79
2022/07/09 01:54:23;;;;;;;;;;;25.70;43.40;;;;;;2092158;28;1246;-79
2022/07/09 01:55:23;;;;;;;;;;;25.80;43.40;;;;;;2100746;28;1303;-79
2022/07/09 01:56:23;;;;;;;;;;;25.80;43.30;;;;;;2100368;28;1379;-79
2022/07/09 01:57:24;;;;;;;;;;;25.80;43.40;;;;;;2092249;28;1212;-79
2022/07/09 01:58:24;;;;;;;;;;;25.80;43.30;;;;;;2100511;28;1897;-79
2022/07/09 01:59:25;;;;;;;;;;;25.80;43.40;;;;;;2101174;28;913;-79
2022/07/09 02:00:27;;;;;;;;;;;25.80;43.40;;;;;;2100325;28;1331;-79
2022/07/09 02:01:28;;;;;;;;;;;25.70;43.30;;;;;;2100508;28;852;-79
2022/07/09 02:02:28;;;;;;;;;;;25.80;43.40;;;;;;2100402;28;1237;-79
2022/07/09 02:03:28;;;;;;;;;;;25.70;43.40;;;;;;2100542;28;1094;-79
2022/07/09 02:04:29;;;;;;;;;;;25.70;43.40;;;;;;2100985;28;1189;-79
2022/07/09 02:05:29;;;;;;;;;;;25.80;43.40;;;;;;2101039;28;960;-79
2022/07/09 02:06:30;;;;;;;;;;;25.70;43.40;;;;;;2100829;28;1008;-79
2022/07/09 02:07:30;;;;;;;;;;;25.70;43.40;;;;;;2100444;28;1220;-79
2022/07/09 02:08:31;;;;;;;;;;;25.80;43.40;;;;;;2092097;28;1238;-79
2022/07/09 02:09:31;;;;;;;;;;;25.70;43.40;;;;;;2100424;28;1384;-79
2022/07/09 02:10:31;;;;;;;;;;;25.80;43.40;;;;;;2092156;28;1338;-79
2022/07/09 02:11:32;;;;;;;;;;;25.80;43.40;;;;;;2100496;28;825;-79
2022/07/09 02:12:32;;;;;;;;;;;25.70;43.50;;;;;;2101099;28;890;-79
2022/07/09 02:13:32;;;;;;;;;;;25.80;43.40;;;;;;2100207;28;1225;-79
2022/07/09 02:14:33;;;;;;;;;;;25.70;43.40;;;;;;2092002;28;1360;-79
2022/07/09 02:15:33;;;;;;;;;;;25.70;43.40;;;;;;2100400;28;877;-79
2022/07/09 02:16:33;;;;;;;;;;;25.70;43.40;;;;;;2101040;28;995;-79
2022/07/09 02:17:34;;;;;;;;;;;25.80;43.40;;;;;;2100389;28;1242;-79
2022/07/09 02:18:35;;;;;;;;;;;25.70;43.40;;;;;;2100601;28;1902;-79
2022/07/09 02:19:35;;;;;;;;;;;25.70;43.40;;;;;;2100385;28;1237;-79
2022/07/09 02:20:35;;;;;;;;;;;25.70;43.40;;;;;;2091978;28;1277;-79
2022/07/09 02:21:36;;;;;;;;;;;25.80;43.50;;;;;;2092012;28;1402;-79
2022/07/09 02:22:36;;;;;;;;;;;25.80;43.40;;;;;;2091992;28;1189;-79
2022/07/09 02:23:37;;;;;;;;;;;25.70;43.40;;;;;;2091855;28;1247;-79
2022/07/09 02:24:37;;;;;;;;;;;25.80;43.40;;;;;;2100211;28;1173;-79
2022/07/09 02:25:37;;;;;;;;;;;25.70;43.40;;;;;;2100258;28;1368;-79
2022/07/09 02:26:38;;;;;;;;;;;25.80;43.40;;;;;;2091931;28;1248;-79
2022/07/09 02:27:38;;;;;;;;;;;25.80;43.50;;;;;;2100317;28;957;-79
2022/07/09 02:28:38;;;;;;;;;;;25.70;43.50;;;;;;2100893;28;849;-79
2022/07/09 02:29:39;;;;;;;;;;;25.80;43.50;;;;;;2100806;28;932;-79
2022/07/09 02:30:39;;;;;;;;;;;25.80;43.50;;;;;;2100081;28;1253;-79
2022/07/09 02:31:39;;;;;;;;;;;25.70;43.50;;;;;;2100223;28;920;-79
2022/07/09 02:32:40;;;;;;;;;;;25.70;43.50;;;;;;2100016;28;1334;-79
2022/07/09 02:33:40;;;;;;;;;;;25.70;43.50;;;;;;2100240;28;858;-79
2022/07/09 02:34:41;;;;;;;;;;;25.80;43.50;;;;;;2100187;28;1241;-79
2022/07/09 02:35:42;;;;;;;;;;;25.70;43.50;;;;;;2100353;28;1000;-79
2022/07/09 02:36:43;;;;;;;;;;;25.70;43.50;;;;;;2100760;28;963;-79
2022/07/09 02:37:43;;;;;;;;;;;25.70;43.40;;;;;;2100153;28;1244;-79
2022/07/09 02:38:44;;;;;;;;;;;25.70;43.50;;;;;;2100243;28;1965;-79
2022/07/09 02:39:44;;;;;;;;;;;25.70;43.50;;;;;;2100837;28;960;-79
2022/07/09 02:40:44;;;;;;;;;;;25.70;43.50;;;;;;2100663;28;1004;-79
2022/07/09 02:41:45;;;;;;;;;;;25.80;43.50;;;;;;2100335;28;974;-79
2022/07/09 02:42:45;;;;;;;;;;;25.80;43.50;;;;;;2100739;28;912;-79
2022/07/09 02:43:46;;;;;;;;;;;25.80;43.50;;;;;;2100122;28;1404;-79
2022/07/09 02:44:46;;;;;;;;;;;25.70;43.50;;;;;;2091719;28;1226;-79
2022/07/09 02:45:46;;;;;;;;;;;25.70;43.50;;;;;;2100241;28;868;-79
2022/07/09 02:46:47;;;;;;;;;;;25.80;43.50;;;;;;2100703;28;830;-79
2022/07/09 02:47:47;;;;;;;;;;;25.70;43.50;;;;;;2099943;28;1235;-79
2022/07/09 02:48:47;;;;;;;;;;;25.80;43.50;;;;;;2091672;28;1251;-79
2022/07/09 02:49:48;;;;;;;;;;;25.70;43.40;;;;;;2100159;28;1391;-79
2022/07/09 02:50:48;;;;;;;;;;;25.70;43.50;;;;;;2091862;28;1206;-79
2022/07/09 02:51:49;;;;;;;;;;;25.70;43.50;;;;;;2099969;28;1246;-79
2022/07/09 02:52:49;;;;;;;;;;;25.70;43.50;;;;;;2100092;28;1043;-79
2022/07/09 02:53:49;;;;;;;;;;;25.80;43.50;;;;;;2100081;28;1223;-79
2022/07/09 02:54:50;;;;;;;;;;;25.70;43.50;;;;;;2100119;28;1256;-79
2022/07/09 02:55:50;;;;;;;;;;;25.70;43.50;;;;;;2108283;28;1243;-79
2022/07/09 02:56:50;;;;;;;;;;;25.70;43.60;;;;;;2100073;28;1388;-79
2022/07/09 02:57:51;;;;;;;;;;;25.70;43.60;;;;;;2100192;28;801;-79
2022/07/09 02:58:53;;;;;;;;;;;25.70;43.50;;;;;;2100684;28;1932;-79
2022/07/09 02:59:54;;;;;;;;;;;25.70;43.60;;;;;;2100002;28;1402;-79
2022/07/09 03:00:54;;;;;;;;;;;25.70;43.50;;;;;;2091625;28;1461;-79
2022/07/09 03:01:54;;;;;;;;;;;25.70;43.60;;;;;;2100062;28;932;-79
2022/07/09 03:02:55;;;;;;;;;;;25.70;43.60;;;;;;2100073;28;1227;-79
2022/07/09 03:03:55;;;;;;;;;;;25.70;43.50;;;;;;2100271;28;794;-79
2022/07/09 03:04:56;;;;;;;;;;;25.70;43.50;;;;;;2100590;28;1145;-79
2022/07/09 03:05:56;;;;;;;;;;;25.70;43.50;;;;;;2100587;28;1099;-79
2022/07/09 03:06:56;;;;;;;;;;;25.80;43.60;;;;;;2100741;28;785;-79
2022/07/09 03:07:57;;;;;;;;;;;25.80;43.50;;;;;;2099890;28;1262;-79
2022/07/09 03:08:57;;;;;;;;;;;25.80;43.60;;;;;;2091541;28;1223;-79
2022/07/09 03:09:58;;;;;;;;;;;25.70;43.60;;;;;;2100233;28;1218;-79
2022/07/09 03:10:58;;;;;;;;;;;25.70;43.60;;;;;;2100106;28;932;-79
2022/07/09 03:11:58;;;;;;;;;;;25.70;43.60;;;;;;2099783;28;1362;-79
2022/07/09 03:12:59;;;;;;;;;;;25.70;43.60;;;;;;2091693;28;1241;-79
2022/07/09 03:13:59;;;;;;;;;;;25.70;43.70;;;;;;2091667;28;1316;-80
2022/07/09 03:14:59;;;;;;;;;;;25.70;43.60;;;;;;2099809;28;1291;-79
2022/07/09 03:16:00;;;;;;;;;;;25.70;43.60;;;;;;2100451;28;908;-79
2022/07/09 03:17:00;;;;;;;;;;;25.70;43.60;;;;;;2099843;28;1336;-79
2022/07/09 03:18:00;;;;;;;;;;;25.80;43.80;;;;;;2091623;28;1380;-79
2022/07/09 03:19:01;;;;;;;;;;;25.70;43.70;;;;;;2099679;28;1965;-79
2022/07/09 03:20:01;;;;;;;;;;;25.70;43.70;;;;;;2099802;28;1234;-79
2022/07/09 03:21:02;;;;;;;;;;;25.70;43.70;;;;;;2099905;28;924;-79
2022/07/09 03:22:02;;;;;;;;;;;25.80;43.60;;;;;;2100439;28;857;-79
2022/07/09 03:23:02;;;;;;;;;;;25.80;43.70;;;;;;2100613;28;805;-79
2022/07/09 03:24:03;;;;;;;;;;;25.70;43.70;;;;;;2100426;28;868;-79
2022/07/09 03:25:03;;;;;;;;;;;25.80;43.70;;;;;;2100430;28;1285;-79
2022/07/09 03:26:04;;;;;;;;;;;25.70;43.70;;;;;;2099707;28;1264;-79
2022/07/09 03:27:04;;;;;;;;;;;25.70;43.70;;;;;;2099779;28;1043;-80
2022/07/09 03:28:05;;;;;;;;;;;25.70;43.80;;;;;;2099704;28;1351;-81
2022/07/09 03:29:05;;;;;;;;;;;25.80;43.70;;;;;;2091567;28;1219;-79
2022/07/09 03:30:08;;;;;;;;;;;25.70;43.80;;;;;;2099814;28;825;-79
2022/07/09 03:31:09;;;;;;;;;;;25.80;43.80;;;;;;2100454;28;853;-79
2022/07/09 03:32:09;;;;;;;;;;;25.80;43.70;;;;;;2099611;28;1123;-80
2022/07/09 03:33:09;;;;;;;;;;;25.80;43.80;;;;;;2099706;28;867;-80
2022/07/09 03:34:10;;;;;;;;;;;25.80;43.70;;;;;;2099573;28;1437;-80
2022/07/09 03:35:10;;;;;;;;;;;25.80;43.80;;;;;;2099597;28;1181;-79
2022/07/09 03:36:11;;;;;;;;;;;25.80;43.90;;;;;;2100343;28;1000;-79
2022/07/09 03:37:11;;;;;;;;;;;25.80;43.70;;;;;;2100258;28;884;-79
2022/07/09 03:38:11;;;;;;;;;;;25.80;43.80;;;;;;2099698;28;1261;-79
2022/07/09 03:39:12;;;;;;;;;;;25.80;43.70;;;;;;2091208;28;1965;-79
2022/07/09 03:40:12;;;;;;;;;;;25.80;43.80;;;;;;2099488;28;1658;-79
2022/07/09 03:41:12;;;;;;;;;;;25.80;43.90;;;;;;2099685;28;821;-79
2022/07/09 03:42:13;;;;;;;;;;;25.70;43.80;;;;;;2099484;28;1256;-79
2022/07/09 03:43:13;;;;;;;;;;;25.80;43.90;;;;;;2099716;28;1231;-79
2022/07/09 03:44:14;;;;;;;;;;;25.80;43.80;;;;;;2100334;28;908;-79
2022/07/09 03:45:14;;;;;;;;;;;25.80;43.90;;;;;;2100150;28;1240;-79
2022/07/09 03:46:14;;;;;;;;;;;25.70;43.80;;;;;;2100116;28;845;-80
2022/07/09 03:47:15;;;;;;;;;;;25.80;43.90;;;;;;2099577;28;1244;-80
2022/07/09 03:48:15;;;;;;;;;;;25.80;43.80;;;;;;2091349;28;1218;-79
2022/07/09 03:49:16;;;;;;;;;;;25.70;43.80;;;;;;2099632;28;1004;-80
2022/07/09 03:50:16;;;;;;;;;;;25.80;43.90;;;;;;2099544;28;1234;-80
2022/07/09 03:51:16;;;;;;;;;;;25.80;44.00;;;;;;2099785;28;798;-80
2022/07/09 03:52:17;;;;;;;;;;;25.80;44.00;;;;;;2099421;28;1267;-80
2022/07/09 03:53:17;;;;;;;;;;;25.80;44.00;;;;;;2098813;28;1367;-80
2022/07/09 03:54:18;;;;;;;;;;;25.80;43.90;;;;;;2099502;28;1268;-79
2022/07/09 03:55:18;;;;;;;;;;;25.70;44.00;;;;;;2091181;28;1382;-79
2022/07/09 03:56:19;;;;;;;;;;;25.80;44.00;;;;;;2099593;28;1092;-79
2022/07/09 03:57:20;;;;;;;;;;;25.80;44.00;;;;;;2100127;28;936;-79
2022/07/09 03:58:20;;;;;;;;;;;25.80;44.00;;;;;;2099449;28;1303;-80
2022/07/09 03:59:21;;;;;;;;;;;25.70;43.90;;;;;;2099671;28;1902;-80
2022/07/09 04:00:21;;;;;;;;;;;25.80;44.00;;;;;;2100059;28;1098;-80
2022/07/09 04:01:21;;;;;;;;;;;25.80;44.00;;;;;;2100103;28;884;-80
2022/07/09 04:02:22;;;;;;;;;;;25.80;44.00;;;;;;2100057;28;936;-80
2022/07/09 04:03:22;;;;;;;;;;;25.80;43.90;;;;;;2099625;28;1221;-80
2022/07/09 04:04:23;;;;;;;;;;;25.80;44.00;;;;;;2091241;28;1640;-80
2022/07/09 04:05:23;;;;;;;;;;;25.80;44.10;;;;;;2099377;28;1510;-80
2022/07/09 04:06:23;;;;;;;;;;;25.80;44.10;;;;;;2091140;28;1359;-80
2022/07/09 04:07:26;;;;;;;;;;;25.80;44.00;;;;;;2099543;28;972;-80
2022/07/09 04:08:26;;;;;;;;;;;25.80;43.90;;;;;;2100130;28;877;-80
2022/07/09 04:09:27;;;;;;;;;;;25.80;44.10;;;;;;2100280;28;831;-80
2022/07/09 04:10:27;;;;;;;;;;;25.80;44.20;;;;;;2099400;28;1357;-80
2022/07/09 04:11:27;;;;;;;;;;;25.80;44.10;;;;;;2091013;28;1205;-80
2022/07/09 04:12:28;;;;;;;;;;;25.80;44.20;;;;;;2099417;28;1238;-80
2022/07/09 04:13:28;;;;;;;;;;;25.80;44.10;;;;;;2091019;28;1225;-77
2022/07/09 04:14:28;;;;;;;;;;;25.80;44.20;;;;;;2099387;28;1157;-77
2022/07/09 04:15:29;;;;;;;;;;;25.70;42.70;;;;;;2099238;28;1241;-76
2022/07/09 04:16:29;;;;;;;;;;;25.50;41.30;;;;;;2099470;28;790;-76
2022/07/09 04:17:30;;;;;;;;;;;25.40;40.70;;;;;;2099951;28;904;-76
2022/07/09 04:18:30;;;;;;;;;;;25.20;40.20;;;;;;2099141;28;1906;-76
2022/07/09 04:19:30;;;;;;;;;;;25.10;40.10;;;;;;2099458;28;917;-76
2022/07/09 04:20:31;;;;;;;;;;;25.00;40.20;;;;;;2099150;28;1387;-76
2022/07/09 04:21:31;;;;;;;;;;;24.90;40.10;;;;;;2099463;28;859;-76
2022/07/09 04:22:32;;;;;;;;;;;24.80;40.00;;;;;;2100026;28;853;-76
2022/07/09 04:23:32;;;;;;;;;;;24.80;40.00;;;;;;2099171;28;1277;-76
2022/07/09 04:24:32;;;;;;;;;;;24.70;40.00;;;;;;2090930;28;1222;-76
2022/07/09 04:25:33;;;;;;;;;;;24.70;40.30;;;;;;2099462;28;786;-76
2022/07/09 04:26:33;;;;;;;;;;;24.70;40.30;;;;;;2099912;28;1020;-76
2022/07/09 04:27:35;;;;;;;;;;;24.80;40.50;;;;;;2099808;28;853;-76
2022/07/09 04:28:37;;;;;;;;;;;24.80;40.60;;;;;;2099314;28;1279;-76
2022/07/09 04:29:37;;;;;;;;;;;24.80;40.80;;;;;;2099475;28;821;-76
2022/07/09 04:30:37;;;;;;;;;;;24.90;41.00;;;;;;2099118;28;1553;-76
2022/07/09 04:31:38;;;;;;;;;;;25.00;40.70;;;;;;2099246;28;968;-76
2022/07/09 04:32:38;;;;;;;;;;;25.00;40.60;;;;;;2099660;28;954;-76
2022/07/09 04:33:39;;;;;;;;;;;25.00;40.50;;;;;;2100024;28;882;-77
2022/07/09 04:34:39;;;;;;;;;;;25.00;40.60;;;;;;2099135;28;1228;-76
2022/07/09 04:35:39;;;;;;;;;;;25.10;40.30;;;;;;2099228;28;786;-76
2022/07/09 04:36:40;;;;;;;;;;;25.10;40.40;;;;;;2099186;28;1249;-76
2022/07/09 04:37:40;;;;;;;;;;;25.20;40.30;;;;;;2090918;28;1431;-76
2022/07/09 04:38:41;;;;;;;;;;;25.20;40.30;;;;;;2090834;28;1922;-76
2022/07/09 04:39:41;;;;;;;;;;;25.20;40.30;;;;;;2099299;28;801;-76
2022/07/09 04:40:41;;;;;;;;;;;25.20;40.20;;;;;;2099782;28;917;-76
2022/07/09 04:41:42;;;;;;;;;;;25.20;40.30;;;;;;2099845;28;872;-76
2022/07/09 04:42:42;;;;;;;;;;;25.30;40.10;;;;;;2099103;28;1275;-76
2022/07/09 04:43:43;;;;;;;;;;;25.30;40.10;;;;;;2099167;28;1267;-76
2022/07/09 04:44:43;;;;;;;;;;;25.20;40.10;;;;;;2099075;28;1271;-76
2022/07/09 04:45:43;;;;;;;;;;;25.20;40.10;;;;;;2099245;28;818;-76
2022/07/09 04:46:44;;;;;;;;;;;25.20;40.10;;;;;;2099183;28;1260;-76
2022/07/09 04:47:44;;;;;;;;;;;25.30;39.90;;;;;;2090982;28;1257;-76
2022/07/09 04:48:44;;;;;;;;;;;25.30;40.10;;;;;;2090787;28;1429;-76
2022/07/09 04:49:45;;;;;;;;;;;25.30;40.40;;;;;;2099331;28;884;-76
2022/07/09 04:50:45;;;;;;;;;;;25.30;39.90;;;;;;2099786;28;924;-76
2022/07/09 04:51:45;;;;;;;;;;;25.30;40.00;;;;;;2099139;28;1197;-76
2022/07/09 04:52:46;;;;;;;;;;;25.30;40.00;;;;;;2090854;28;1277;-76
2022/07/09 04:53:46;;;;;;;;;;;25.30;40.20;;;;;;2099167;28;1316;-77
2022/07/09 04:54:47;;;;;;;;;;;25.30;40.10;;;;;;2099277;28;1249;-76
2022/07/09 04:55:47;;;;;;;;;;;25.30;40.00;;;;;;2099123;28;1208;-76
2022/07/09 04:56:48;;;;;;;;;;;25.30;40.40;;;;;;2099219;28;905;-76
2022/07/09 04:57:48;;;;;;;;;;;25.30;40.20;;;;;;2099907;28;874;-76
2022/07/09 04:58:52;;;;;;;;;;;25.30;40.80;;;;;;2099767;28;1906;-76
2022/07/09 04:59:52;;;;;;;;;;;25.30;40.70;;;;;;2098974;28;1230;-76
2022/07/09 05:00:52;;;;;;;;;;;25.30;40.20;;;;;;2090780;28;1214;-76
2022/07/09 05:01:53;;;;;;;;;;;25.30;40.90;;;;;;2099064;28;901;-76
2022/07/09 05:02:53;;;;;;;;;;;25.30;40.80;;;;;;2099814;28;959;-76
2022/07/09 05:03:53;;;;;;;;;;;25.30;40.80;;;;;;2099689;28;1056;-76
2022/07/09 05:04:54;;;;;;;;;;;25.30;40.50;;;;;;2101130;28;1157;-76
2022/07/09 05:05:54;;;;;;;;;;;25.30;40.40;;;;;;2100695;28;1401;-76
2022/07/09 05:06:55;;;;;;;;;;;25.30;40.90;;;;;;2092366;28;1214;-76
2022/07/09 05:07:55;;;;;;;;;;;25.30;40.70;;;;;;2100673;28;1252;-76
2022/07/09 05:08:55;;;;;;;;;;;25.20;40.60;;;;;;2100842;28;932;-76
2022/07/09 05:09:56;;;;;;;;;;;25.30;40.30;;;;;;2100590;28;1207;-76
2022/07/09 05:10:56;;;;;;;;;;;25.20;40.20;;;;;;2100890;28;864;-75
2022/07/09 05:11:56;;;;;;;;;;;25.30;40.40;;;;;;2100662;28;1204;-76
2022/07/09 05:12:57;;;;;;;;;;;25.20;40.10;;;;;;2092419;28;1199;-76
2022/07/09 05:13:57;;;;;;;;;;;25.20;40.10;;;;;;2100682;28;806;-76
2022/07/09 05:14:57;;;;;;;;;;;25.20;40.20;;;;;;2100548;28;1374;-76
2022/07/09 05:15:58;;;;;;;;;;;25.30;40.50;;;;;;2100753;28;856;-76
2022/07/09 05:16:58;;;;;;;;;;;25.20;40.40;;;;;;2101307;28;932;-76
2022/07/09 05:17:58;;;;;;;;;;;25.20;40.20;;;;;;2100576;28;1199;-76
2022/07/09 05:18:59;;;;;;;;;;;25.20;40.00;;;;;;2092353;28;1894;-76
2022/07/09 05:19:59;;;;;;;;;;;25.20;40.00;;;;;;2100728;28;913;-76
2022/07/09 05:21:00;;;;;;;;;;;25.20;40.30;;;;;;2101299;28;837;-76
2022/07/09 05:22:01;;;;;;;;;;;25.20;40.40;;;;;;2100577;28;1209;-76
2022/07/09 05:23:01;;;;;;;;;;;25.20;40.30;;;;;;2100632;28;908;-76
2022/07/09 05:24:02;;;;;;;;;;;25.20;40.00;;;;;;2100601;28;1380;-76
2022/07/09 05:25:03;;;;;;;;;;;25.20;40.30;;;;;;2100601;28;1248;-76
2022/07/09 05:26:03;;;;;;;;;;;25.20;40.10;;;;;;2101250;28;826;-76
2022/07/09 05:27:03;;;;;;;;;;;25.20;40.40;;;;;;2101163;28;1055;-76
2022/07/09 05:28:04;;;;;;;;;;;25.20;40.40;;;;;;2101327;28;837;-76
2022/07/09 05:29:04;;;;;;;;;;;25.20;40.40;;;;;;2100500;28;1253;-76
2022/07/09 05:30:04;;;;;;;;;;;25.20;40.50;;;;;;2100751;28;852;-76
2022/07/09 05:31:05;;;;;;;;;;;25.20;40.00;;;;;;2100645;28;1293;-76
2022/07/09 05:32:05;;;;;;;;;;;25.20;40.20;;;;;;2092176;28;1246;-76
2022/07/09 05:33:06;;;;;;;;;;;25.20;40.40;;;;;;2092145;28;1260;-76
2022/07/09 05:34:07;;;;;;;;;;;25.20;40.30;;;;;;2092213;28;1290;-76
2022/07/09 05:35:08;;;;;;;;;;;25.20;40.60;;;;;;2100522;28;1255;-76
2022/07/09 05:36:08;;;;;;;;;;;25.20;40.40;;;;;;2101191;28;841;-76
2022/07/09 05:37:08;;;;;;;;;;;25.20;40.40;;;;;;2100441;28;1239;-76
2022/07/09 05:38:09;;;;;;;;;;;25.20;40.20;;;;;;2100602;28;798;-77
2022/07/09 05:39:09;;;;;;;;;;;25.20;40.40;;;;;;2100285;28;1909;-77
2022/07/09 05:40:10;;;;;;;;;;;25.20;40.20;;;;;;2100648;28;805;-76
2022/07/09 05:41:10;;;;;;;;;;;25.20;40.10;;;;;;2101065;28;917;-76
2022/07/09 05:42:11;;;;;;;;;;;25.20;40.10;;;;;;2101150;28;911;-77
2022/07/09 05:43:11;;;;;;;;;;;25.20;40.30;;;;;;2101108;28;822;-76
2022/07/09 05:44:11;;;;;;;;;;;25.20;40.40;;;;;;2101067;28;843;-76
2022/07/09 05:45:12;;;;;;;;;;;25.20;40.20;;;;;;2100299;28;1235;-76
2022/07/09 05:46:12;;;;;;;;;;;25.20;40.50;;;;;;2091990;28;1244;-76
2022/07/09 05:47:15;;;;;;;;;;;25.20;40.60;;;;;;2100487;28;806;-76
2022/07/09 05:48:15;;;;;;;;;;;25.20;40.40;;;;;;2101050;28;813;-76
2022/07/09 05:49:15;;;;;;;;;;;25.20;40.40;;;;;;2100969;28;1040;-76
2022/07/09 05:50:16;;;;;;;;;;;25.20;40.40;;;;;;2100382;28;1278;-76
2022/07/09 05:51:16;;;;;;;;;;;25.20;40.20;;;;;;2100419;28;925;-76
2022/07/09 05:52:16;;;;;;;;;;;25.20;40.30;;;;;;2101020;28;849;-76
2022/07/09 05:53:17;;;;;;;;;;;25.20;40.30;;;;;;2100305;28;1256;-77
2022/07/09 05:54:17;;;;;;;;;;;25.20;40.30;;;;;;2091996;28;1337;-76
2022/07/09 05:55:17;;;;;;;;;;;25.20;40.20;;;;;;2100273;28;1262;-76
2022/07/09 05:56:18;;;;;;;;;;;25.20;40.20;;;;;;2101028;28;872;-76
2022/07/09 05:57:18;;;;;;;;;;;25.20;40.40;;;;;;2100240;28;1178;-76
2022/07/09 05:58:19;;;;;;;;;;;25.20;40.30;;;;;;2100461;28;889;-77